sensor_id;sensor_type;location;lat;lon;timestamp;temperature;humidity
26909;DHT22;14477;51.038;4.588;2022-09-06T00:02:00;20.50;76.80
26909;DHT22;14477;51.038;4.588;2022-09-06T00:04:25;20.50;77.00
26909;DHT22;14477;51.038;4.588;2022-09-06T00:06:51;20.40;77.10
26909;DHT22;14477;51.038;4.588;2022-09-06T00:09:16;20.50;77.40
26909;DHT22;14477;51.038;4.588;2022-09-06T00:11:42;20.40;77.50
26909;DHT22;14477;51.038;4.588;2022-09-06T00:14:08;20.40;77.80
26909;DHT22;14477;51.038;4.588;2022-09-06T00:16:33;20.30;78.60
26909;DHT22;14477;51.038;4.588;2022-09-06T00:18:59;20.30;78.00
26909;DHT22;14477;51.038;4.588;2022-09-06T00:21:28;20.40;78.20
26909;DHT22;14477;51.038;4.588;2022-09-06T00:23:54;20.30;78.40
26909;DHT22;14477;51.038;4.588;2022-09-06T00:26:21;20.30;78.40
26909;DHT22;14477;51.038;4.588;2022-09-06T00:28:47;20.40;78.60
26909;DHT22;14477;51.038;4.588;2022-09-06T00:31:19;20.30;78.60
26909;DHT22;14477;51.038;4.588;2022-09-06T00:33:45;20.30;78.80
26909;DHT22;14477;51.038;4.588;2022-09-06T00:36:11;20.30;78.70
26909;DHT22;14477;51.038;4.588;2022-09-06T00:38:37;20.30;79.00
26909;DHT22;14477;51.038;4.588;2022-09-06T00:41:05;20.30;78.90
26909;DHT22;14477;51.038;4.588;2022-09-06T00:43:31;20.30;79.20
26909;DHT22;14477;51.038;4.588;2022-09-06T00:45:57;20.30;79.20
26909;DHT22;14477;51.038;4.588;2022-09-06T00:48:24;20.30;79.40
26909;DHT22;14477;51.038;4.588;2022-09-06T00:50:52;20.30;80.20
26909;DHT22;14477;51.038;4.588;2022-09-06T00:53:20;20.30;79.70
26909;DHT22;14477;51.038;4.588;2022-09-06T00:55:46;20.30;79.70
26909;DHT22;14477;51.038;4.588;2022-09-06T00:58:12;20.30;79.70
26909;DHT22;14477;51.038;4.588;2022-09-06T01:00:38;20.30;79.90
26909;DHT22;14477;51.038;4.588;2022-09-06T01:03:05;20.20;79.80
26909;DHT22;14477;51.038;4.588;2022-09-06T01:06:04;20.30;80.00
26909;DHT22;14477;51.038;4.588;2022-09-06T01:16:49;20.10;79.90
26909;DHT22;14477;51.038;4.588;2022-09-06T01:19:41;20.10;80.50
26909;DHT22;14477;51.038;4.588;2022-09-06T01:37:21;19.90;80.70
26909;DHT22;14477;51.038;4.588;2022-09-06T01:39:29;19.80;80.30
26909;DHT22;14477;51.038;4.588;2022-09-06T01:41:57;19.80;80.30
26909;DHT22;14477;51.038;4.588;2022-09-06T01:44:25;19.80;80.50
26909;DHT22;14477;51.038;4.588;2022-09-06T01:47:05;19.70;80.60
26909;DHT22;14477;51.038;4.588;2022-09-06T01:55:22;19.60;81.30
26909;DHT22;14477;51.038;4.588;2022-09-06T01:58:15;19.60;81.30
26909;DHT22;14477;51.038;4.588;2022-09-06T02:01:07;19.60;81.60
26909;DHT22;14477;51.038;4.588;2022-09-06T02:03:51;19.60;81.80
26909;DHT22;14477;51.038;4.588;2022-09-06T02:06:28;19.60;81.90
26909;DHT22;14477;51.038;4.588;2022-09-06T02:09:07;19.50;81.80
26909;DHT22;14477;51.038;4.588;2022-09-06T02:11:39;19.50;82.10
26909;DHT22;14477;51.038;4.588;2022-09-06T02:14:12;19.50;81.90
26909;DHT22;14477;51.038;4.588;2022-09-06T02:16:40;19.50;82.10
26909;DHT22;14477;51.038;4.588;2022-09-06T02:19:19;19.50;82.10
26909;DHT22;14477;51.038;4.588;2022-09-06T02:21:46;19.40;82.30
26909;DHT22;14477;51.038;4.588;2022-09-06T02:24:21;19.40;82.10
26909;DHT22;14477;51.038;4.588;2022-09-06T02:26:47;19.40;82.20
26909;DHT22;14477;51.038;4.588;2022-09-06T02:29:14;19.40;82.10
26909;DHT22;14477;51.038;4.588;2022-09-06T02:31:42;19.40;82.10
26909;DHT22;14477;51.038;4.588;2022-09-06T02:34:14;19.40;82.20
26909;DHT22;14477;51.038;4.588;2022-09-06T02:36:40;19.30;82.30
26909;DHT22;14477;51.038;4.588;2022-09-06T02:39:05;19.30;82.30
26909;DHT22;14477;51.038;4.588;2022-09-06T02:41:32;19.30;82.60
26909;DHT22;14477;51.038;4.588;2022-09-06T02:43:58;19.30;82.50
26909;DHT22;14477;51.038;4.588;2022-09-06T02:46:24;19.30;82.40
26909;DHT22;14477;51.038;4.588;2022-09-06T02:48:50;19.30;82.50
26909;DHT22;14477;51.038;4.588;2022-09-06T02:51:16;19.20;82.50
26909;DHT22;14477;51.038;4.588;2022-09-06T02:53:41;19.20;82.50
26909;DHT22;14477;51.038;4.588;2022-09-06T02:56:07;19.20;82.60
26909;DHT22;14477;51.038;4.588;2022-09-06T02:58:33;19.10;82.60
26909;DHT22;14477;51.038;4.588;2022-09-06T03:00:59;19.10;82.60
26909;DHT22;14477;51.038;4.588;2022-09-06T03:03:25;19.10;82.60
26909;DHT22;14477;51.038;4.588;2022-09-06T03:05:52;19.10;82.70
26909;DHT22;14477;51.038;4.588;2022-09-06T03:08:20;19.10;82.70
26909;DHT22;14477;51.038;4.588;2022-09-06T03:10:50;19.00;82.70
26909;DHT22;14477;51.038;4.588;2022-09-06T03:13:16;19.00;82.80
26909;DHT22;14477;51.038;4.588;2022-09-06T03:15:42;19.00;82.70
26909;DHT22;14477;51.038;4.588;2022-09-06T03:18:08;19.00;82.80
26909;DHT22;14477;51.038;4.588;2022-09-06T03:20:33;18.90;82.80
26909;DHT22;14477;51.038;4.588;2022-09-06T03:22:59;18.90;82.80
26909;DHT22;14477;51.038;4.588;2022-09-06T03:25:25;18.80;82.80
26909;DHT22;14477;51.038;4.588;2022-09-06T03:27:51;18.80;83.00
26909;DHT22;14477;51.038;4.588;2022-09-06T03:30:17;18.80;83.10
26909;DHT22;14477;51.038;4.588;2022-09-06T03:32:42;18.80;83.10
26909;DHT22;14477;51.038;4.588;2022-09-06T03:35:09;18.80;83.30
26909;DHT22;14477;51.038;4.588;2022-09-06T03:37:36;18.80;83.30
26909;DHT22;14477;51.038;4.588;2022-09-06T03:40:03;18.70;83.30
26909;DHT22;14477;51.038;4.588;2022-09-06T03:42:29;18.70;83.40
26909;DHT22;14477;51.038;4.588;2022-09-06T03:44:55;18.70;83.40
26909;DHT22;14477;51.038;4.588;2022-09-06T03:47:20;18.60;83.40
26909;DHT22;14477;51.038;4.588;2022-09-06T03:49:46;18.60;83.60
26909;DHT22;14477;51.038;4.588;2022-09-06T03:52:12;18.60;83.60
26909;DHT22;14477;51.038;4.588;2022-09-06T03:54:38;18.60;83.70
26909;DHT22;14477;51.038;4.588;2022-09-06T03:57:03;18.60;83.80
26909;DHT22;14477;51.038;4.588;2022-09-06T03:59:29;18.60;83.80
26909;DHT22;14477;51.038;4.588;2022-09-06T04:01:54;18.50;83.80
26909;DHT22;14477;51.038;4.588;2022-09-06T04:04:20;18.50;83.90
26909;DHT22;14477;51.038;4.588;2022-09-06T04:06:46;18.50;83.90
26909;DHT22;14477;51.038;4.588;2022-09-06T04:09:11;18.50;83.90
26909;DHT22;14477;51.038;4.588;2022-09-06T04:11:37;18.50;84.00
26909;DHT22;14477;51.038;4.588;2022-09-06T04:14:03;18.50;84.00
26909;DHT22;14477;51.038;4.588;2022-09-06T04:16:29;18.50;84.80
26909;DHT22;14477;51.038;4.588;2022-09-06T04:18:54;18.40;84.00
26909;DHT22;14477;51.038;4.588;2022-09-06T04:21:20;18.50;84.10
26909;DHT22;14477;51.038;4.588;2022-09-06T04:23:45;18.40;84.20
26909;DHT22;14477;51.038;4.588;2022-09-06T04:26:11;18.40;84.30
26909;DHT22;14477;51.038;4.588;2022-09-06T04:28:37;18.40;84.30
26909;DHT22;14477;51.038;4.588;2022-09-06T04:31:03;18.40;84.40
26909;DHT22;14477;51.038;4.588;2022-09-06T04:33:30;18.40;84.50
26909;DHT22;14477;51.038;4.588;2022-09-06T04:35:58;18.40;84.60
26909;DHT22;14477;51.038;4.588;2022-09-06T04:38:29;18.30;84.50
26909;DHT22;14477;51.038;4.588;2022-09-06T04:40:55;18.30;84.60
26909;DHT22;14477;51.038;4.588;2022-09-06T04:43:21;18.30;84.50
26909;DHT22;14477;51.038;4.588;2022-09-06T04:45:47;18.30;84.70
26909;DHT22;14477;51.038;4.588;2022-09-06T04:48:13;18.30;84.70
26909;DHT22;14477;51.038;4.588;2022-09-06T04:50:39;18.30;84.70
26909;DHT22;14477;51.038;4.588;2022-09-06T04:53:05;18.30;84.70
26909;DHT22;14477;51.038;4.588;2022-09-06T04:55:31;18.20;84.70
26909;DHT22;14477;51.038;4.588;2022-09-06T04:57:59;18.20;85.60
26909;DHT22;14477;51.038;4.588;2022-09-06T05:00:29;18.20;84.90
26909;DHT22;14477;51.038;4.588;2022-09-06T05:02:56;18.20;85.00
26909;DHT22;14477;51.038;4.588;2022-09-06T05:05:22;18.20;84.90
26909;DHT22;14477;51.038;4.588;2022-09-06T05:07:51;18.20;84.90
26909;DHT22;14477;51.038;4.588;2022-09-06T05:10:17;18.10;85.00
26909;DHT22;14477;51.038;4.588;2022-09-06T05:12:43;18.10;85.00
26909;DHT22;14477;51.038;4.588;2022-09-06T05:15:11;18.10;85.00
26909;DHT22;14477;51.038;4.588;2022-09-06T05:17:37;18.10;85.00
26909;DHT22;14477;51.038;4.588;2022-09-06T05:20:03;18.10;85.10
26909;DHT22;14477;51.038;4.588;2022-09-06T05:22:29;18.10;85.10
26909;DHT22;14477;51.038;4.588;2022-09-06T05:24:54;18.00;85.20
26909;DHT22;14477;51.038;4.588;2022-09-06T05:27:20;18.10;85.30
26909;DHT22;14477;51.038;4.588;2022-09-06T05:29:46;18.10;85.40
26909;DHT22;14477;51.038;4.588;2022-09-06T05:32:11;18.10;85.40
26909;DHT22;14477;51.038;4.588;2022-09-06T05:34:37;18.00;85.50
26909;DHT22;14477;51.038;4.588;2022-09-06T05:37:02;18.00;85.60
26909;DHT22;14477;51.038;4.588;2022-09-06T05:39:28;18.10;85.80
26909;DHT22;14477;51.038;4.588;2022-09-06T05:41:54;18.00;85.90
26909;DHT22;14477;51.038;4.588;2022-09-06T05:44:19;18.10;86.00
26909;DHT22;14477;51.038;4.588;2022-09-06T05:46:45;18.10;86.20
26909;DHT22;14477;51.038;4.588;2022-09-06T05:49:12;18.10;86.20
26909;DHT22;14477;51.038;4.588;2022-09-06T05:51:38;18.10;86.30
26909;DHT22;14477;51.038;4.588;2022-09-06T05:54:05;18.10;86.40
26909;DHT22;14477;51.038;4.588;2022-09-06T05:56:30;18.10;86.50
26909;DHT22;14477;51.038;4.588;2022-09-06T05:58:56;18.10;87.30
26909;DHT22;14477;51.038;4.588;2022-09-06T06:04:00;18.10;86.90
26909;DHT22;14477;51.038;4.588;2022-09-06T06:06:29;18.20;87.20
26909;DHT22;14477;51.038;4.588;2022-09-06T06:08:55;18.20;87.30
26909;DHT22;14477;51.038;4.588;2022-09-06T06:11:21;18.30;87.50
26909;DHT22;14477;51.038;4.588;2022-09-06T06:13:47;18.30;87.70
26909;DHT22;14477;51.038;4.588;2022-09-06T06:16:14;18.30;87.80
26909;DHT22;14477;51.038;4.588;2022-09-06T06:18:41;18.40;88.00
26909;DHT22;14477;51.038;4.588;2022-09-06T06:23:33;18.40;88.40
26909;DHT22;14477;51.038;4.588;2022-09-06T06:25:59;18.50;88.70
26909;DHT22;14477;51.038;4.588;2022-09-06T06:28:24;18.50;88.90
26909;DHT22;14477;51.038;4.588;2022-09-06T06:30:50;18.60;89.00
26909;DHT22;14477;51.038;4.588;2022-09-06T06:33:15;18.70;89.20
26909;DHT22;14477;51.038;4.588;2022-09-06T06:35:54;18.70;89.40
26909;DHT22;14477;51.038;4.588;2022-09-06T06:38:20;18.80;89.60
26909;DHT22;14477;51.038;4.588;2022-09-06T06:40:45;18.90;89.80
26909;DHT22;14477;51.038;4.588;2022-09-06T06:43:11;18.90;89.90
26909;DHT22;14477;51.038;4.588;2022-09-06T06:45:37;19.00;90.00
26909;DHT22;14477;51.038;4.588;2022-09-06T06:48:02;19.10;90.10
26909;DHT22;14477;51.038;4.588;2022-09-06T06:50:28;19.10;90.10
26909;DHT22;14477;51.038;4.588;2022-09-06T06:52:53;19.20;90.20
26909;DHT22;14477;51.038;4.588;2022-09-06T06:55:19;19.30;90.30
26909;DHT22;14477;51.038;4.588;2022-09-06T06:57:45;19.30;90.40
26909;DHT22;14477;51.038;4.588;2022-09-06T07:00:10;19.40;90.40
26909;DHT22;14477;51.038;4.588;2022-09-06T07:02:36;19.50;90.50
26909;DHT22;14477;51.038;4.588;2022-09-06T07:05:02;19.60;90.50
26909;DHT22;14477;51.038;4.588;2022-09-06T07:07:28;19.70;90.60
26909;DHT22;14477;51.038;4.588;2022-09-06T07:09:53;19.70;90.60
26909;DHT22;14477;51.038;4.588;2022-09-06T07:12:19;19.80;90.70
26909;DHT22;14477;51.038;4.588;2022-09-06T07:14:44;19.90;91.00
26909;DHT22;14477;51.038;4.588;2022-09-06T07:17:10;20.10;91.70
26909;DHT22;14477;51.038;4.588;2022-09-06T07:19:36;20.30;92.60
26909;DHT22;14477;51.038;4.588;2022-09-06T07:22:01;20.60;93.10
26909;DHT22;14477;51.038;4.588;2022-09-06T07:24:27;20.90;92.80
26909;DHT22;14477;51.038;4.588;2022-09-06T07:26:52;21.20;92.50
26909;DHT22;14477;51.038;4.588;2022-09-06T07:29:18;21.50;92.40
26909;DHT22;14477;51.038;4.588;2022-09-06T07:31:44;21.80;93.00
26909;DHT22;14477;51.038;4.588;2022-09-06T07:34:09;22.10;93.80
26909;DHT22;14477;51.038;4.588;2022-09-06T07:36:35;22.50;94.30
26909;DHT22;14477;51.038;4.588;2022-09-06T07:39:01;23.00;94.60
26909;DHT22;14477;51.038;4.588;2022-09-06T07:41:26;23.50;94.50
26909;DHT22;14477;51.038;4.588;2022-09-06T07:43:52;24.00;94.30
26909;DHT22;14477;51.038;4.588;2022-09-06T07:46:21;24.50;93.90
26909;DHT22;14477;51.038;4.588;2022-09-06T07:48:47;25.00;93.80
26909;DHT22;14477;51.038;4.588;2022-09-06T07:51:18;25.60;93.20
26909;DHT22;14477;51.038;4.588;2022-09-06T07:53:48;26.00;91.80
26909;DHT22;14477;51.038;4.588;2022-09-06T07:56:19;26.50;91.50
26909;DHT22;14477;51.038;4.588;2022-09-06T07:58:46;26.90;91.50
26909;DHT22;14477;51.038;4.588;2022-09-06T08:01:25;27.40;91.10
26909;DHT22;14477;51.038;4.588;2022-09-06T08:04:01;27.70;88.50
26909;DHT22;14477;51.038;4.588;2022-09-06T08:06:29;28.10;90.20
26909;DHT22;14477;51.038;4.588;2022-09-06T08:08:56;28.40;89.80
26909;DHT22;14477;51.038;4.588;2022-09-06T08:11:23;28.70;88.10
26909;DHT22;14477;51.038;4.588;2022-09-06T08:13:50;29.00;86.00
26909;DHT22;14477;51.038;4.588;2022-09-06T08:16:17;29.10;85.90
26909;DHT22;14477;51.038;4.588;2022-09-06T08:18:43;29.30;86.30
26909;DHT22;14477;51.038;4.588;2022-09-06T08:21:13;29.50;86.70
26909;DHT22;14477;51.038;4.588;2022-09-06T08:23:43;29.80;84.70
26909;DHT22;14477;51.038;4.588;2022-09-06T08:26:09;30.00;86.20
26909;DHT22;14477;51.038;4.588;2022-09-06T08:28:35;30.30;85.90
26909;DHT22;14477;51.038;4.588;2022-09-06T08:31:09;30.50;85.90
26909;DHT22;14477;51.038;4.588;2022-09-06T08:33:35;30.70;83.80
26909;DHT22;14477;51.038;4.588;2022-09-06T08:36:02;30.90;84.00
26909;DHT22;14477;51.038;4.588;2022-09-06T08:38:28;31.10;83.60
26909;DHT22;14477;51.038;4.588;2022-09-06T08:41:16;31.20;84.10
26909;DHT22;14477;51.038;4.588;2022-09-06T08:44:01;31.50;79.80
26909;DHT22;14477;51.038;4.588;2022-09-06T08:46:33;31.70;77.80
26909;DHT22;14477;51.038;4.588;2022-09-06T08:49:01;31.90;79.90
26909;DHT22;14477;51.038;4.588;2022-09-06T08:54:17;32.20;77.90
26909;DHT22;14477;51.038;4.588;2022-09-06T08:59:23;32.80;77.10
26909;DHT22;14477;51.038;4.588;2022-09-06T09:02:00;32.90;81.40
26909;DHT22;14477;51.038;4.588;2022-09-06T09:04:29;33.20;75.70
26909;DHT22;14477;51.038;4.588;2022-09-06T09:07:08;33.40;81.80
26909;DHT22;14477;51.038;4.588;2022-09-06T09:09:38;33.60;75.30
26909;DHT22;14477;51.038;4.588;2022-09-06T09:12:09;33.80;79.30
26909;DHT22;14477;51.038;4.588;2022-09-06T09:14:38;34.00;75.50
26909;DHT22;14477;51.038;4.588;2022-09-06T09:17:14;34.20;77.60
26909;DHT22;14477;51.038;4.588;2022-09-06T09:19:41;34.30;73.30
26909;DHT22;14477;51.038;4.588;2022-09-06T09:22:06;34.50;77.80
26909;DHT22;14477;51.038;4.588;2022-09-06T09:24:32;34.70;77.70
26909;DHT22;14477;51.038;4.588;2022-09-06T09:27:08;34.80;77.20
26909;DHT22;14477;51.038;4.588;2022-09-06T09:32:33;35.20;70.50
26909;DHT22;14477;51.038;4.588;2022-09-06T09:38:00;35.60;69.70
26909;DHT22;14477;51.038;4.588;2022-09-06T09:40:33;35.80;74.90
26909;DHT22;14477;51.038;4.588;2022-09-06T09:43:15;35.90;72.90
26909;DHT22;14477;51.038;4.588;2022-09-06T09:45:42;35.90;64.80
26909;DHT22;14477;51.038;4.588;2022-09-06T09:48:18;35.70;71.40
26909;DHT22;14477;51.038;4.588;2022-09-06T09:50:45;35.60;67.10
26909;DHT22;14477;51.038;4.588;2022-09-06T09:53:14;35.50;72.80
26909;DHT22;14477;51.038;4.588;2022-09-06T09:55:40;35.60;71.80
26909;DHT22;14477;51.038;4.588;2022-09-06T09:58:31;35.70;75.00
26909;DHT22;14477;51.038;4.588;2022-09-06T10:01:18;35.80;72.10
26909;DHT22;14477;51.038;4.588;2022-09-06T10:03:45;36.00;68.90
26909;DHT22;14477;51.038;4.588;2022-09-06T10:06:12;36.30;75.40
26909;DHT22;14477;51.038;4.588;2022-09-06T10:08:40;36.60;74.90
26909;DHT22;14477;51.038;4.588;2022-09-06T10:11:12;36.80;71.90
26909;DHT22;14477;51.038;4.588;2022-09-06T10:13:38;36.90;70.50
26909;DHT22;14477;51.038;4.588;2022-09-06T10:16:06;37.10;71.80
26909;DHT22;14477;51.038;4.588;2022-09-06T10:18:33;37.20;71.40
26909;DHT22;14477;51.038;4.588;2022-09-06T10:28:49;37.70;65.00
26909;DHT22;14477;51.038;4.588;2022-09-06T10:34:39;38.00;63.10
26909;DHT22;14477;51.038;4.588;2022-09-06T10:40:58;38.40;62.30
26909;DHT22;14477;51.038;4.588;2022-09-06T10:43:46;38.60;60.60
26909;DHT22;14477;51.038;4.588;2022-09-06T10:46:18;38.80;66.50
26909;DHT22;14477;51.038;4.588;2022-09-06T10:48:47;39.00;65.00
26909;DHT22;14477;51.038;4.588;2022-09-06T10:56:57;39.50;60.00
26909;DHT22;14477;51.038;4.588;2022-09-06T10:59:32;39.70;61.00
26909;DHT22;14477;51.038;4.588;2022-09-06T11:04:45;40.10;59.40
26909;DHT22;14477;51.038;4.588;2022-09-06T11:07:28;40.40;63.90
26909;DHT22;14477;51.038;4.588;2022-09-06T11:10:03;40.60;57.80
26909;DHT22;14477;51.038;4.588;2022-09-06T11:15:15;40.80;64.60
26909;DHT22;14477;51.038;4.588;2022-09-06T11:26:30;41.40;57.10
26909;DHT22;14477;51.038;4.588;2022-09-06T11:29:05;41.50;57.90
26909;DHT22;14477;51.038;4.588;2022-09-06T11:31:47;41.70;59.50
26909;DHT22;14477;51.038;4.588;2022-09-06T11:34:23;41.80;61.90
26909;DHT22;14477;51.038;4.588;2022-09-06T11:37:01;42.10;56.40
26909;DHT22;14477;51.038;4.588;2022-09-06T11:39:39;42.20;54.70
26909;DHT22;14477;51.038;4.588;2022-09-06T11:47:44;42.40;59.90
26909;DHT22;14477;51.038;4.588;2022-09-06T11:50:23;42.50;55.30
26909;DHT22;14477;51.038;4.588;2022-09-06T11:53:17;42.50;53.20
26909;DHT22;14477;51.038;4.588;2022-09-06T11:55:49;42.40;54.00
26909;DHT22;14477;51.038;4.588;2022-09-06T12:00:42;42.20;56.30
26909;DHT22;14477;51.038;4.588;2022-09-06T12:03:09;42.10;54.70
26909;DHT22;14477;51.038;4.588;2022-09-06T12:06:15;41.80;55.40
26909;DHT22;14477;51.038;4.588;2022-09-06T12:08:42;41.70;51.10
26909;DHT22;14477;51.038;4.588;2022-09-06T12:11:27;41.70;57.60
26909;DHT22;14477;51.038;4.588;2022-09-06T12:16:20;41.80;56.90
26909;DHT22;14477;51.038;4.588;2022-09-06T12:21:31;41.90;56.30
26909;DHT22;14477;51.038;4.588;2022-09-06T12:23:57;42.00;51.10
26909;DHT22;14477;51.038;4.588;2022-09-06T12:26:47;42.00;55.50
26909;DHT22;14477;51.038;4.588;2022-09-06T12:29:16;41.90;50.50
26909;DHT22;14477;51.038;4.588;2022-09-06T12:31:54;41.70;53.70
26909;DHT22;14477;51.038;4.588;2022-09-06T12:34:29;41.60;51.40
26909;DHT22;14477;51.038;4.588;2022-09-06T12:36:59;41.60;51.70
26909;DHT22;14477;51.038;4.588;2022-09-06T12:39:25;41.70;54.30
26909;DHT22;14477;51.038;4.588;2022-09-06T12:41:55;41.80;55.00
26909;DHT22;14477;51.038;4.588;2022-09-06T12:44:36;41.80;52.60
26909;DHT22;14477;51.038;4.588;2022-09-06T12:49:42;41.80;48.50
26909;DHT22;14477;51.038;4.588;2022-09-06T12:52:14;41.80;53.70
26909;DHT22;14477;51.038;4.588;2022-09-06T12:54:43;41.90;50.40
26909;DHT22;14477;51.038;4.588;2022-09-06T12:59:55;42.20;49.20
26909;DHT22;14477;51.038;4.588;2022-09-06T13:02:40;42.30;49.80
26909;DHT22;14477;51.038;4.588;2022-09-06T13:05:11;42.50;49.20
26909;DHT22;14477;51.038;4.588;2022-09-06T13:07:44;42.40;51.10
26909;DHT22;14477;51.038;4.588;2022-09-06T13:10:12;42.50;48.90
26909;DHT22;14477;51.038;4.588;2022-09-06T13:12:42;42.40;49.50
26909;DHT22;14477;51.038;4.588;2022-09-06T13:15:13;42.30;49.10
26909;DHT22;14477;51.038;4.588;2022-09-06T13:17:41;42.20;48.50
26909;DHT22;14477;51.038;4.588;2022-09-06T13:20:26;42.20;50.40
26909;DHT22;14477;51.038;4.588;2022-09-06T13:23:10;42.00;46.80
26909;DHT22;14477;51.038;4.588;2022-09-06T13:25:50;41.90;45.20
26909;DHT22;14477;51.038;4.588;2022-09-06T13:28:27;41.70;45.60
26909;DHT22;14477;51.038;4.588;2022-09-06T13:31:17;41.50;45.70
26909;DHT22;14477;51.038;4.588;2022-09-06T13:33:44;41.20;44.50
26909;DHT22;14477;51.038;4.588;2022-09-06T13:36:25;41.10;49.10
26909;DHT22;14477;51.038;4.588;2022-09-06T13:38:52;40.90;47.30
26909;DHT22;14477;51.038;4.588;2022-09-06T13:43:57;40.90;46.40
26909;DHT22;14477;51.038;4.588;2022-09-06T13:46:23;40.80;45.80
26909;DHT22;14477;51.038;4.588;2022-09-06T13:48:52;40.70;48.20
26909;DHT22;14477;51.038;4.588;2022-09-06T13:51:18;40.50;47.90
26909;DHT22;14477;51.038;4.588;2022-09-06T13:53:44;40.40;47.90
26909;DHT22;14477;51.038;4.588;2022-09-06T13:56:09;40.20;48.20
26909;DHT22;14477;51.038;4.588;2022-09-06T13:58:36;40.10;48.00
26909;DHT22;14477;51.038;4.588;2022-09-06T14:01:02;39.90;47.70
26909;DHT22;14477;51.038;4.588;2022-09-06T14:03:30;39.70;47.00
26909;DHT22;14477;51.038;4.588;2022-09-06T14:05:57;39.50;45.90
26909;DHT22;14477;51.038;4.588;2022-09-06T14:08:24;39.20;46.40
26909;DHT22;14477;51.038;4.588;2022-09-06T14:10:50;39.00;46.50
26909;DHT22;14477;51.038;4.588;2022-09-06T14:13:17;38.80;46.20
26909;DHT22;14477;51.038;4.588;2022-09-06T14:15:44;38.50;45.80
26909;DHT22;14477;51.038;4.588;2022-09-06T14:18:10;38.20;45.20
26909;DHT22;14477;51.038;4.588;2022-09-06T14:20:36;37.90;46.00
26909;DHT22;14477;51.038;4.588;2022-09-06T14:23:02;37.60;46.30
26909;DHT22;14477;51.038;4.588;2022-09-06T14:25:28;37.40;47.00
26909;DHT22;14477;51.038;4.588;2022-09-06T14:27:54;37.10;47.30
26909;DHT22;14477;51.038;4.588;2022-09-06T14:30:20;37.00;47.90
26909;DHT22;14477;51.038;4.588;2022-09-06T14:32:45;36.90;48.50
26909;DHT22;14477;51.038;4.588;2022-09-06T14:35:11;36.90;48.60
26909;DHT22;14477;51.038;4.588;2022-09-06T14:37:37;36.80;48.10
26909;DHT22;14477;51.038;4.588;2022-09-06T14:40:03;36.70;48.10
26909;DHT22;14477;51.038;4.588;2022-09-06T14:42:29;36.60;47.80
26909;DHT22;14477;51.038;4.588;2022-09-06T14:44:55;36.50;47.60
26909;DHT22;14477;51.038;4.588;2022-09-06T14:47:21;36.30;47.80
26909;DHT22;14477;51.038;4.588;2022-09-06T14:49:46;36.20;48.10
26909;DHT22;14477;51.038;4.588;2022-09-06T14:52:12;36.00;48.30
26909;DHT22;14477;51.038;4.588;2022-09-06T14:54:38;35.90;48.50
26909;DHT22;14477;51.038;4.588;2022-09-06T14:57:03;35.80;48.70
26909;DHT22;14477;51.038;4.588;2022-09-06T14:59:29;35.70;49.00
26909;DHT22;14477;51.038;4.588;2022-09-06T15:01:55;35.60;49.10
26909;DHT22;14477;51.038;4.588;2022-09-06T15:04:21;35.50;49.30
26909;DHT22;14477;51.038;4.588;2022-09-06T15:06:47;35.50;49.30
26909;DHT22;14477;51.038;4.588;2022-09-06T15:09:14;35.40;49.10
26909;DHT22;14477;51.038;4.588;2022-09-06T15:11:47;35.30;48.80
26909;DHT22;14477;51.038;4.588;2022-09-06T15:14:16;35.30;49.10
26909;DHT22;14477;51.038;4.588;2022-09-06T15:16:43;35.20;48.70
26909;DHT22;14477;51.038;4.588;2022-09-06T15:19:08;35.10;49.10
26909;DHT22;14477;51.038;4.588;2022-09-06T15:21:34;35.00;49.20
26909;DHT22;14477;51.038;4.588;2022-09-06T15:24:00;34.80;49.50
26909;DHT22;14477;51.038;4.588;2022-09-06T15:26:27;34.70;49.50
26909;DHT22;14477;51.038;4.588;2022-09-06T15:28:53;34.50;49.60
26909;DHT22;14477;51.038;4.588;2022-09-06T15:31:19;34.40;49.70
26909;DHT22;14477;51.038;4.588;2022-09-06T15:33:45;34.20;49.80
26909;DHT22;14477;51.038;4.588;2022-09-06T15:36:13;34.10;49.80
26909;DHT22;14477;51.038;4.588;2022-09-06T15:38:46;34.00;50.00
26909;DHT22;14477;51.038;4.588;2022-09-06T15:41:20;33.80;49.20
26909;DHT22;14477;51.038;4.588;2022-09-06T15:43:48;33.70;50.60
26909;DHT22;14477;51.038;4.588;2022-09-06T15:46:17;33.60;50.50
26909;DHT22;14477;51.038;4.588;2022-09-06T15:48:47;33.50;50.60
26909;DHT22;14477;51.038;4.588;2022-09-06T15:51:16;33.40;50.90
26909;DHT22;14477;51.038;4.588;2022-09-06T15:53:42;33.20;51.10
26909;DHT22;14477;51.038;4.588;2022-09-06T15:56:12;33.20;51.80
26909;DHT22;14477;51.038;4.588;2022-09-06T15:58:38;33.10;51.30
26909;DHT22;14477;51.038;4.588;2022-09-06T16:03:38;32.90;51.20
26909;DHT22;14477;51.038;4.588;2022-09-06T16:06:06;32.90;51.60
26909;DHT22;14477;51.038;4.588;2022-09-06T16:08:33;32.80;52.10
26909;DHT22;14477;51.038;4.588;2022-09-06T16:10:59;32.80;52.40
26909;DHT22;14477;51.038;4.588;2022-09-06T16:13:31;32.80;52.40
26909;DHT22;14477;51.038;4.588;2022-09-06T16:15:58;32.70;51.60
26909;DHT22;14477;51.038;4.588;2022-09-06T16:18:24;32.60;52.60
26909;DHT22;14477;51.038;4.588;2022-09-06T16:20:50;32.60;53.20
26909;DHT22;14477;51.038;4.588;2022-09-06T16:23:16;32.50;53.30
26909;DHT22;14477;51.038;4.588;2022-09-06T16:25:52;32.50;53.40
26909;DHT22;14477;51.038;4.588;2022-09-06T16:28:18;32.40;53.40
26909;DHT22;14477;51.038;4.588;2022-09-06T16:30:44;32.50;54.10
26909;DHT22;14477;51.038;4.588;2022-09-06T16:33:10;32.50;53.90
26909;DHT22;14477;51.038;4.588;2022-09-06T16:35:38;32.50;53.70
26909;DHT22;14477;51.038;4.588;2022-09-06T16:38:04;32.50;53.60
26909;DHT22;14477;51.038;4.588;2022-09-06T16:40:30;32.40;53.80
26909;DHT22;14477;51.038;4.588;2022-09-06T16:42:56;32.40;54.30
26909;DHT22;14477;51.038;4.588;2022-09-06T16:45:22;32.40;53.80
26909;DHT22;14477;51.038;4.588;2022-09-06T16:47:47;32.40;53.70
26909;DHT22;14477;51.038;4.588;2022-09-06T16:50:13;32.40;53.90
26909;DHT22;14477;51.038;4.588;2022-09-06T16:52:39;32.40;54.00
26909;DHT22;14477;51.038;4.588;2022-09-06T16:55:05;32.40;54.00
26909;DHT22;14477;51.038;4.588;2022-09-06T16:57:31;32.40;54.00
26909;DHT22;14477;51.038;4.588;2022-09-06T16:59:58;32.40;54.00
26909;DHT22;14477;51.038;4.588;2022-09-06T17:02:24;32.40;53.90
26909;DHT22;14477;51.038;4.588;2022-09-06T17:04:49;32.40;54.20
26909;DHT22;14477;51.038;4.588;2022-09-06T17:07:15;32.40;54.00
26909;DHT22;14477;51.038;4.588;2022-09-06T17:09:42;32.40;54.00
26909;DHT22;14477;51.038;4.588;2022-09-06T17:12:08;32.30;53.80
26909;DHT22;14477;51.038;4.588;2022-09-06T17:14:34;32.20;53.70
26909;DHT22;14477;51.038;4.588;2022-09-06T17:17:01;32.10;53.70
26909;DHT22;14477;51.038;4.588;2022-09-06T17:19:32;31.90;53.70
26909;DHT22;14477;51.038;4.588;2022-09-06T17:21:58;31.80;53.70
26909;DHT22;14477;51.038;4.588;2022-09-06T17:24:24;31.60;53.90